Terminal Aerodrome Forecast
Issued by NWS Duluth, MN

Home | Current Version | Previous Version | Text Only | Print | Product List | Glossary On
Versions: 1 2 3 4 5 6 7 8 9 10 11 12 13 14 15
896
FTUS43 KDLH 241720
TAFINL
TAF
KINL 241720Z 2418/2518 34011G18KT P6SM SCT030
     FM250100 VRB04KT P6SM SKC
     FM251500 23008G15KT P6SM FEW200=

USA.gov is the U.S. government's official web portal to all federal, state and local government web resources and services.